sensor_id;sensor_type;location;lat;lon;timestamp;P1;durP1;ratioP1;P2;durP2;ratioP2
79592;SDS011;69074;45.164;9.704;2023-07-20T00:00:19;9.3;;;4.1;;
79592;SDS011;69074;45.164;9.704;2023-07-20T00:02:44;9.3;;;4.1;;
79592;SDS011;69074;45.164;9.704;2023-07-20T00:05:09;9.3;;;4.1;;
79592;SDS011;69074;45.164;9.704;2023-07-20T00:07:34;3.9;;;3.1;;
79592;SDS011;69074;45.164;9.704;2023-07-20T00:09:59;3.9;;;3.1;;
79592;SDS011;69074;45.164;9.704;2023-07-20T00:12:24;3.9;;;3.1;;
79592;SDS011;69074;45.164;9.704;2023-07-20T00:14:49;3.9;;;3.1;;
79592;SDS011;69074;45.164;9.704;2023-07-20T00:17:14;3.9;;;3.1;;
79592;SDS011;69074;45.164;9.704;2023-07-20T00:19:39;3.9;;;3.1;;
79592;SDS011;69074;45.164;9.704;2023-07-20T00:22:04;3.9;;;3.1;;
79592;SDS011;69074;45.164;9.704;2023-07-20T00:24:29;6.0;;;3.4;;
79592;SDS011;69074;45.164;9.704;2023-07-20T00:26:54;6.0;;;3.4;;
79592;SDS011;69074;45.164;9.704;2023-07-20T00:29:19;6.0;;;3.4;;
79592;SDS011;69074;45.164;9.704;2023-07-20T00:31:44;6.0;;;3.4;;
79592;SDS011;69074;45.164;9.704;2023-07-20T00:34:09;6.0;;;3.4;;
79592;SDS011;69074;45.164;9.704;2023-07-20T00:36:34;6.0;;;3.4;;
79592;SDS011;69074;45.164;9.704;2023-07-20T00:38:59;7.7;;;5.1;;
79592;SDS011;69074;45.164;9.704;2023-07-20T00:41:24;7.7;;;5.1;;
79592;SDS011;69074;45.164;9.704;2023-07-20T00:43:49;7.7;;;5.1;;
79592;SDS011;69074;45.164;9.704;2023-07-20T00:46:14;7.7;;;5.1;;
79592;SDS011;69074;45.164;9.704;2023-07-20T00:48:39;7.7;;;5.1;;
79592;SDS011;69074;45.164;9.704;2023-07-20T00:51:04;7.7;;;5.1;;
79592;SDS011;69074;45.164;9.704;2023-07-20T00:53:29;6.9;;;4.4;;
79592;SDS011;69074;45.164;9.704;2023-07-20T00:55:54;6.9;;;4.4;;
79592;SDS011;69074;45.164;9.704;2023-07-20T00:58:19;6.9;;;4.4;;
79592;SDS011;69074;45.164;9.704;2023-07-20T01:00:44;6.9;;;4.4;;
79592;SDS011;69074;45.164;9.704;2023-07-20T01:03:09;6.9;;;4.4;;
79592;SDS011;69074;45.164;9.704;2023-07-20T01:05:36;6.9;;;4.4;;
79592;SDS011;69074;45.164;9.704;2023-07-20T01:08:00;7.0;;;4.1;;
79592;SDS011;69074;45.164;9.704;2023-07-20T01:10:25;7.0;;;4.1;;
79592;SDS011;69074;45.164;9.704;2023-07-20T01:12:51;7.0;;;4.1;;
79592;SDS011;69074;45.164;9.704;2023-07-20T01:15:14;7.0;;;4.1;;
79592;SDS011;69074;45.164;9.704;2023-07-20T01:17:39;7.0;;;4.1;;
79592;SDS011;69074;45.164;9.704;2023-07-20T01:20:04;7.0;;;4.1;;
79592;SDS011;69074;45.164;9.704;2023-07-20T01:22:35;7.0;;;4.1;;
79592;SDS011;69074;45.164;9.704;2023-07-20T01:24:57;6.4;;;4.5;;
79592;SDS011;69074;45.164;9.704;2023-07-20T01:29:51;6.4;;;4.5;;
79592;SDS011;69074;45.164;9.704;2023-07-20T01:32:09;6.4;;;4.5;;
79592;SDS011;69074;45.164;9.704;2023-07-20T01:34:34;6.4;;;4.5;;
79592;SDS011;69074;45.164;9.704;2023-07-20T01:36:59;6.4;;;4.5;;
79592;SDS011;69074;45.164;9.704;2023-07-20T01:39:24;10.8;;;6.6;;
79592;SDS011;69074;45.164;9.704;2023-07-20T01:41:49;10.8;;;6.6;;
79592;SDS011;69074;45.164;9.704;2023-07-20T01:44:14;10.8;;;6.6;;
79592;SDS011;69074;45.164;9.704;2023-07-20T01:46:39;10.8;;;6.6;;
79592;SDS011;69074;45.164;9.704;2023-07-20T01:49:04;10.8;;;6.6;;
79592;SDS011;69074;45.164;9.704;2023-07-20T01:51:29;10.8;;;6.6;;
79592;SDS011;69074;45.164;9.704;2023-07-20T01:53:54;10.8;;;6.4;;
79592;SDS011;69074;45.164;9.704;2023-07-20T01:56:19;10.8;;;6.4;;
79592;SDS011;69074;45.164;9.704;2023-07-20T01:58:44;10.8;;;6.4;;
79592;SDS011;69074;45.164;9.704;2023-07-20T02:01:09;10.8;;;6.4;;
79592;SDS011;69074;45.164;9.704;2023-07-20T02:03:34;10.8;;;6.4;;
79592;SDS011;69074;45.164;9.704;2023-07-20T02:05:59;10.8;;;6.4;;
79592;SDS011;69074;45.164;9.704;2023-07-20T02:08:24;15.2;;;7.9;;
79592;SDS011;69074;45.164;9.704;2023-07-20T02:10:49;15.2;;;7.9;;
79592;SDS011;69074;45.164;9.704;2023-07-20T02:13:14;15.2;;;7.9;;
79592;SDS011;69074;45.164;9.704;2023-07-20T02:15:39;15.2;;;7.9;;
79592;SDS011;69074;45.164;9.704;2023-07-20T02:18:04;15.2;;;7.9;;
79592;SDS011;69074;45.164;9.704;2023-07-20T02:20:29;15.2;;;7.9;;
79592;SDS011;69074;45.164;9.704;2023-07-20T02:22:54;9.2;;;5.5;;
79592;SDS011;69074;45.164;9.704;2023-07-20T02:25:19;9.2;;;5.5;;
79592;SDS011;69074;45.164;9.704;2023-07-20T02:27:44;9.2;;;5.5;;
79592;SDS011;69074;45.164;9.704;2023-07-20T02:30:09;9.2;;;5.5;;
79592;SDS011;69074;45.164;9.704;2023-07-20T02:32:34;9.2;;;5.5;;
79592;SDS011;69074;45.164;9.704;2023-07-20T02:34:59;9.2;;;5.5;;
79592;SDS011;69074;45.164;9.704;2023-07-20T02:37:24;9.2;;;5.5;;
79592;SDS011;69074;45.164;9.704;2023-07-20T02:39:49;10.8;;;6.3;;
79592;SDS011;69074;45.164;9.704;2023-07-20T02:42:14;10.8;;;6.3;;
79592;SDS011;69074;45.164;9.704;2023-07-20T02:44:39;10.8;;;6.3;;
79592;SDS011;69074;45.164;9.704;2023-07-20T02:47:04;10.8;;;6.3;;
79592;SDS011;69074;45.164;9.704;2023-07-20T02:49:29;10.8;;;6.3;;
79592;SDS011;69074;45.164;9.704;2023-07-20T02:51:54;10.8;;;6.3;;
79592;SDS011;69074;45.164;9.704;2023-07-20T02:54:19;11.3;;;9.0;;
79592;SDS011;69074;45.164;9.704;2023-07-20T02:56:44;11.3;;;9.0;;
79592;SDS011;69074;45.164;9.704;2023-07-20T02:59:09;11.3;;;9.0;;
79592;SDS011;69074;45.164;9.704;2023-07-20T03:01:34;11.3;;;9.0;;
79592;SDS011;69074;45.164;9.704;2023-07-20T03:03:59;11.3;;;9.0;;
79592;SDS011;69074;45.164;9.704;2023-07-20T03:06:24;11.3;;;9.0;;
79592;SDS011;69074;45.164;9.704;2023-07-20T03:08:49;10.9;;;6.3;;
79592;SDS011;69074;45.164;9.704;2023-07-20T03:11:14;10.9;;;6.3;;
79592;SDS011;69074;45.164;9.704;2023-07-20T03:13:39;10.9;;;6.3;;
79592;SDS011;69074;45.164;9.704;2023-07-20T03:16:04;10.9;;;6.3;;
79592;SDS011;69074;45.164;9.704;2023-07-20T03:18:29;10.9;;;6.3;;
79592;SDS011;69074;45.164;9.704;2023-07-20T03:20:54;10.9;;;6.3;;
79592;SDS011;69074;45.164;9.704;2023-07-20T03:23:19;12.1;;;10.8;;
79592;SDS011;69074;45.164;9.704;2023-07-20T03:25:44;12.1;;;10.8;;
79592;SDS011;69074;45.164;9.704;2023-07-20T03:28:09;12.1;;;10.8;;
79592;SDS011;69074;45.164;9.704;2023-07-20T03:30:34;12.1;;;10.8;;
79592;SDS011;69074;45.164;9.704;2023-07-20T03:32:59;12.1;;;10.8;;
79592;SDS011;69074;45.164;9.704;2023-07-20T03:35:24;12.1;;;10.8;;
79592;SDS011;69074;45.164;9.704;2023-07-20T03:37:49;10.6;;;9.3;;
79592;SDS011;69074;45.164;9.704;2023-07-20T03:40:14;10.6;;;9.3;;
79592;SDS011;69074;45.164;9.704;2023-07-20T03:42:39;10.6;;;9.3;;
79592;SDS011;69074;45.164;9.704;2023-07-20T03:45:04;10.6;;;9.3;;
79592;SDS011;69074;45.164;9.704;2023-07-20T03:47:29;10.6;;;9.3;;
79592;SDS011;69074;45.164;9.704;2023-07-20T03:49:54;10.6;;;9.3;;
79592;SDS011;69074;45.164;9.704;2023-07-20T03:52:19;10.6;;;9.3;;
79592;SDS011;69074;45.164;9.704;2023-07-20T03:54:44;24.5;;;19.5;;
79592;SDS011;69074;45.164;9.704;2023-07-20T03:57:09;24.5;;;19.5;;
79592;SDS011;69074;45.164;9.704;2023-07-20T03:59:34;24.5;;;19.5;;
79592;SDS011;69074;45.164;9.704;2023-07-20T04:01:59;24.5;;;19.5;;
79592;SDS011;69074;45.164;9.704;2023-07-20T04:04:24;24.5;;;19.5;;
79592;SDS011;69074;45.164;9.704;2023-07-20T04:06:49;24.5;;;19.5;;
79592;SDS011;69074;45.164;9.704;2023-07-20T04:09:14;13.0;;;9.2;;
79592;SDS011;69074;45.164;9.704;2023-07-20T04:11:39;13.0;;;9.2;;
79592;SDS011;69074;45.164;9.704;2023-07-20T04:14:04;13.0;;;9.2;;
79592;SDS011;69074;45.164;9.704;2023-07-20T04:16:29;13.0;;;9.2;;
79592;SDS011;69074;45.164;9.704;2023-07-20T04:18:54;13.0;;;9.2;;
79592;SDS011;69074;45.164;9.704;2023-07-20T04:21:19;13.0;;;9.2;;
79592;SDS011;69074;45.164;9.704;2023-07-20T04:23:44;10.5;;;7.6;;
79592;SDS011;69074;45.164;9.704;2023-07-20T04:26:09;10.5;;;7.6;;
79592;SDS011;69074;45.164;9.704;2023-07-20T04:28:34;10.5;;;7.6;;
79592;SDS011;69074;45.164;9.704;2023-07-20T04:31:09;10.5;;;7.6;;
79592;SDS011;69074;45.164;9.704;2023-07-20T04:33:24;10.5;;;7.6;;
79592;SDS011;69074;45.164;9.704;2023-07-20T04:35:50;10.5;;;7.6;;
79592;SDS011;69074;45.164;9.704;2023-07-20T04:38:14;15.6;;;10.6;;
79592;SDS011;69074;45.164;9.704;2023-07-20T04:40:39;15.6;;;10.6;;
79592;SDS011;69074;45.164;9.704;2023-07-20T04:43:04;15.6;;;10.6;;
79592;SDS011;69074;45.164;9.704;2023-07-20T04:45:29;15.6;;;10.6;;
79592;SDS011;69074;45.164;9.704;2023-07-20T04:47:54;15.6;;;10.6;;
79592;SDS011;69074;45.164;9.704;2023-07-20T04:50:19;15.6;;;10.6;;
79592;SDS011;69074;45.164;9.704;2023-07-20T04:52:44;17.1;;;12.9;;
79592;SDS011;69074;45.164;9.704;2023-07-20T04:55:09;17.1;;;12.9;;
79592;SDS011;69074;45.164;9.704;2023-07-20T04:57:34;17.1;;;12.9;;
79592;SDS011;69074;45.164;9.704;2023-07-20T04:59:59;17.1;;;12.9;;
79592;SDS011;69074;45.164;9.704;2023-07-20T05:02:24;17.1;;;12.9;;
79592;SDS011;69074;45.164;9.704;2023-07-20T05:04:49;17.1;;;12.9;;
79592;SDS011;69074;45.164;9.704;2023-07-20T05:07:14;17.1;;;12.9;;
79592;SDS011;69074;45.164;9.704;2023-07-20T05:09:39;11.8;;;7.9;;
79592;SDS011;69074;45.164;9.704;2023-07-20T05:12:04;11.8;;;7.9;;
79592;SDS011;69074;45.164;9.704;2023-07-20T05:14:29;11.8;;;7.9;;
79592;SDS011;69074;45.164;9.704;2023-07-20T05:16:54;11.8;;;7.9;;
79592;SDS011;69074;45.164;9.704;2023-07-20T05:19:19;11.8;;;7.9;;
79592;SDS011;69074;45.164;9.704;2023-07-20T05:21:44;11.8;;;7.9;;
79592;SDS011;69074;45.164;9.704;2023-07-20T05:24:09;11.6;;;5.2;;
79592;SDS011;69074;45.164;9.704;2023-07-20T05:26:34;11.6;;;5.2;;
79592;SDS011;69074;45.164;9.704;2023-07-20T05:28:59;11.6;;;5.2;;
79592;SDS011;69074;45.164;9.704;2023-07-20T05:31:24;11.6;;;5.2;;
79592;SDS011;69074;45.164;9.704;2023-07-20T05:33:49;11.6;;;5.2;;
79592;SDS011;69074;45.164;9.704;2023-07-20T05:36:14;11.6;;;5.2;;
79592;SDS011;69074;45.164;9.704;2023-07-20T05:38:39;9.3;;;5.3;;
79592;SDS011;69074;45.164;9.704;2023-07-20T05:41:04;9.3;;;5.3;;
79592;SDS011;69074;45.164;9.704;2023-07-20T05:43:29;9.3;;;5.3;;
79592;SDS011;69074;45.164;9.704;2023-07-20T05:45:54;9.3;;;5.3;;
79592;SDS011;69074;45.164;9.704;2023-07-20T05:48:19;9.3;;;5.3;;
79592;SDS011;69074;45.164;9.704;2023-07-20T05:50:44;9.3;;;5.3;;
79592;SDS011;69074;45.164;9.704;2023-07-20T05:53:09;7.6;;;5.0;;
79592;SDS011;69074;45.164;9.704;2023-07-20T05:55:34;7.6;;;5.0;;
79592;SDS011;69074;45.164;9.704;2023-07-20T05:57:59;7.6;;;5.0;;
79592;SDS011;69074;45.164;9.704;2023-07-20T06:00:24;7.6;;;5.0;;
79592;SDS011;69074;45.164;9.704;2023-07-20T06:02:49;7.6;;;5.0;;
79592;SDS011;69074;45.164;9.704;2023-07-20T06:05:14;7.6;;;5.0;;
79592;SDS011;69074;45.164;9.704;2023-07-20T06:07:39;6.7;;;5.2;;
79592;SDS011;69074;45.164;9.704;2023-07-20T06:10:05;6.7;;;5.2;;
79592;SDS011;69074;45.164;9.704;2023-07-20T06:12:29;6.7;;;5.2;;
79592;SDS011;69074;45.164;9.704;2023-07-20T06:14:54;6.7;;;5.2;;
79592;SDS011;69074;45.164;9.704;2023-07-20T06:17:19;6.7;;;5.2;;
79592;SDS011;69074;45.164;9.704;2023-07-20T06:19:44;6.7;;;5.2;;
79592;SDS011;69074;45.164;9.704;2023-07-20T06:22:09;6.7;;;5.2;;
79592;SDS011;69074;45.164;9.704;2023-07-20T06:24:34;11.4;;;5.4;;
79592;SDS011;69074;45.164;9.704;2023-07-20T06:26:59;11.4;;;5.4;;
79592;SDS011;69074;45.164;9.704;2023-07-20T06:29:24;11.4;;;5.4;;
79592;SDS011;69074;45.164;9.704;2023-07-20T06:31:49;11.4;;;5.4;;
79592;SDS011;69074;45.164;9.704;2023-07-20T06:34:14;11.4;;;5.4;;
79592;SDS011;69074;45.164;9.704;2023-07-20T06:36:39;11.4;;;5.4;;
79592;SDS011;69074;45.164;9.704;2023-07-20T06:39:04;8.1;;;5.4;;
79592;SDS011;69074;45.164;9.704;2023-07-20T06:41:29;8.1;;;5.4;;
79592;SDS011;69074;45.164;9.704;2023-07-20T06:43:54;8.1;;;5.4;;
79592;SDS011;69074;45.164;9.704;2023-07-20T06:46:19;8.1;;;5.4;;
79592;SDS011;69074;45.164;9.704;2023-07-20T06:48:44;8.1;;;5.4;;
79592;SDS011;69074;45.164;9.704;2023-07-20T06:51:09;8.1;;;5.4;;
79592;SDS011;69074;45.164;9.704;2023-07-20T06:53:34;9.1;;;5.1;;
79592;SDS011;69074;45.164;9.704;2023-07-20T06:55:59;9.1;;;5.1;;
79592;SDS011;69074;45.164;9.704;2023-07-20T06:58:24;9.1;;;5.1;;
79592;SDS011;69074;45.164;9.704;2023-07-20T07:00:49;9.1;;;5.1;;
79592;SDS011;69074;45.164;9.704;2023-07-20T07:03:14;9.1;;;5.1;;
79592;SDS011;69074;45.164;9.704;2023-07-20T07:05:39;9.1;;;5.1;;
79592;SDS011;69074;45.164;9.704;2023-07-20T07:08:04;9.6;;;5.6;;
79592;SDS011;69074;45.164;9.704;2023-07-20T07:10:29;9.6;;;5.6;;
79592;SDS011;69074;45.164;9.704;2023-07-20T07:12:54;9.6;;;5.6;;
79592;SDS011;69074;45.164;9.704;2023-07-20T07:15:19;9.6;;;5.6;;
79592;SDS011;69074;45.164;9.704;2023-07-20T07:17:44;9.6;;;5.6;;
79592;SDS011;69074;45.164;9.704;2023-07-20T07:20:09;9.6;;;5.6;;
79592;SDS011;69074;45.164;9.704;2023-07-20T07:22:34;9.6;;;5.6;;
79592;SDS011;69074;45.164;9.704;2023-07-20T07:24:59;11.8;;;5.0;;
79592;SDS011;69074;45.164;9.704;2023-07-20T07:27:24;11.8;;;5.0;;
79592;SDS011;69074;45.164;9.704;2023-07-20T07:29:49;11.8;;;5.0;;
79592;SDS011;69074;45.164;9.704;2023-07-20T07:32:14;11.8;;;5.0;;
79592;SDS011;69074;45.164;9.704;2023-07-20T07:34:39;11.8;;;5.0;;
79592;SDS011;69074;45.164;9.704;2023-07-20T07:37:04;11.8;;;5.0;;
79592;SDS011;69074;45.164;9.704;2023-07-20T07:39:29;11.9;;;6.6;;
79592;SDS011;69074;45.164;9.704;2023-07-20T07:41:54;11.9;;;6.6;;
79592;SDS011;69074;45.164;9.704;2023-07-20T07:44:19;11.9;;;6.6;;
79592;SDS011;69074;45.164;9.704;2023-07-20T07:46:44;11.9;;;6.6;;
79592;SDS011;69074;45.164;9.704;2023-07-20T07:49:09;11.9;;;6.6;;
79592;SDS011;69074;45.164;9.704;2023-07-20T07:51:34;11.9;;;6.6;;
79592;SDS011;69074;45.164;9.704;2023-07-20T07:53:59;7.2;;;5.2;;
79592;SDS011;69074;45.164;9.704;2023-07-20T07:56:24;7.2;;;5.2;;
79592;SDS011;69074;45.164;9.704;2023-07-20T07:58:49;7.2;;;5.2;;
79592;SDS011;69074;45.164;9.704;2023-07-20T08:01:14;7.2;;;5.2;;
79592;SDS011;69074;45.164;9.704;2023-07-20T08:03:39;7.2;;;5.2;;
79592;SDS011;69074;45.164;9.704;2023-07-20T08:06:04;7.2;;;5.2;;
79592;SDS011;69074;45.164;9.704;2023-07-20T08:08:29;52.1;;;17.9;;
79592;SDS011;69074;45.164;9.704;2023-07-20T08:10:54;52.1;;;17.9;;
79592;SDS011;69074;45.164;9.704;2023-07-20T08:13:19;52.1;;;17.9;;
79592;SDS011;69074;45.164;9.704;2023-07-20T08:15:45;52.1;;;17.9;;
79592;SDS011;69074;45.164;9.704;2023-07-20T08:18:09;52.1;;;17.9;;
79592;SDS011;69074;45.164;9.704;2023-07-20T08:20:34;52.1;;;17.9;;
79592;SDS011;69074;45.164;9.704;2023-07-20T08:22:59;15.1;;;8.0;;
79592;SDS011;69074;45.164;9.704;2023-07-20T08:25:24;15.1;;;8.0;;
79592;SDS011;69074;45.164;9.704;2023-07-20T08:27:49;15.1;;;8.0;;
79592;SDS011;69074;45.164;9.704;2023-07-20T08:30:14;15.1;;;8.0;;
79592;SDS011;69074;45.164;9.704;2023-07-20T08:32:39;15.1;;;8.0;;
79592;SDS011;69074;45.164;9.704;2023-07-20T08:35:05;15.1;;;8.0;;
79592;SDS011;69074;45.164;9.704;2023-07-20T08:37:29;15.1;;;8.0;;
79592;SDS011;69074;45.164;9.704;2023-07-20T08:39:54;9.5;;;5.9;;
79592;SDS011;69074;45.164;9.704;2023-07-20T08:42:19;9.5;;;5.9;;
79592;SDS011;69074;45.164;9.704;2023-07-20T08:44:44;9.5;;;5.9;;
79592;SDS011;69074;45.164;9.704;2023-07-20T08:47:09;9.5;;;5.9;;
79592;SDS011;69074;45.164;9.704;2023-07-20T08:49:34;9.5;;;5.9;;
79592;SDS011;69074;45.164;9.704;2023-07-20T08:51:59;9.5;;;5.9;;
79592;SDS011;69074;45.164;9.704;2023-07-20T08:54:24;8.2;;;5.1;;
79592;SDS011;69074;45.164;9.704;2023-07-20T08:56:49;8.2;;;5.1;;
79592;SDS011;69074;45.164;9.704;2023-07-20T08:59:15;8.2;;;5.1;;
79592;SDS011;69074;45.164;9.704;2023-07-20T09:01:39;8.2;;;5.1;;
79592;SDS011;69074;45.164;9.704;2023-07-20T09:04:04;8.2;;;5.1;;
79592;SDS011;69074;45.164;9.704;2023-07-20T09:06:29;8.2;;;5.1;;
79592;SDS011;69074;45.164;9.704;2023-07-20T09:08:54;6.8;;;4.8;;
79592;SDS011;69074;45.164;9.704;2023-07-20T09:11:19;6.8;;;4.8;;
79592;SDS011;69074;45.164;9.704;2023-07-20T09:13:44;6.8;;;4.8;;
79592;SDS011;69074;45.164;9.704;2023-07-20T09:16:10;6.8;;;4.8;;
79592;SDS011;69074;45.164;9.704;2023-07-20T09:18:34;6.8;;;4.8;;
79592;SDS011;69074;45.164;9.704;2023-07-20T09:21:01;6.8;;;4.8;;
79592;SDS011;69074;45.164;9.704;2023-07-20T09:23:29;7.2;;;4.8;;
79592;SDS011;69074;45.164;9.704;2023-07-20T09:25:49;7.2;;;4.8;;
79592;SDS011;69074;45.164;9.704;2023-07-20T09:28:14;7.2;;;4.8;;
79592;SDS011;69074;45.164;9.704;2023-07-20T09:30:39;7.2;;;4.8;;
79592;SDS011;69074;45.164;9.704;2023-07-20T09:33:04;7.2;;;4.8;;
79592;SDS011;69074;45.164;9.704;2023-07-20T09:35:29;7.2;;;4.8;;
79592;SDS011;69074;45.164;9.704;2023-07-20T09:37:55;9.7;;;6.0;;
79592;SDS011;69074;45.164;9.704;2023-07-20T09:40:19;9.7;;;6.0;;
79592;SDS011;69074;45.164;9.704;2023-07-20T09:42:44;9.7;;;6.0;;
79592;SDS011;69074;45.164;9.704;2023-07-20T09:45:09;9.7;;;6.0;;
79592;SDS011;69074;45.164;9.704;2023-07-20T09:47:35;9.7;;;6.0;;
79592;SDS011;69074;45.164;9.704;2023-07-20T09:49:59;9.7;;;6.0;;
79592;SDS011;69074;45.164;9.704;2023-07-20T09:52:24;9.7;;;6.0;;
79592;SDS011;69074;45.164;9.704;2023-07-20T09:54:49;9.5;;;6.2;;
79592;SDS011;69074;45.164;9.704;2023-07-20T09:57:14;9.5;;;6.2;;
79592;SDS011;69074;45.164;9.704;2023-07-20T09:59:39;9.5;;;6.2;;
79592;SDS011;69074;45.164;9.704;2023-07-20T10:02:04;9.5;;;6.2;;
79592;SDS011;69074;45.164;9.704;2023-07-20T10:04:29;9.5;;;6.2;;
79592;SDS011;69074;45.164;9.704;2023-07-20T10:06:54;9.5;;;6.2;;
79592;SDS011;69074;45.164;9.704;2023-07-20T10:09:19;9.1;;;7.2;;
79592;SDS011;69074;45.164;9.704;2023-07-20T10:11:45;9.1;;;7.2;;
79592;SDS011;69074;45.164;9.704;2023-07-20T10:14:09;9.1;;;7.2;;
79592;SDS011;69074;45.164;9.704;2023-07-20T10:16:34;9.1;;;7.2;;
79592;SDS011;69074;45.164;9.704;2023-07-20T10:19:01;9.1;;;7.2;;
79592;SDS011;69074;45.164;9.704;2023-07-20T10:21:24;9.1;;;7.2;;
79592;SDS011;69074;45.164;9.704;2023-07-20T10:23:49;15.5;;;10.9;;
79592;SDS011;69074;45.164;9.704;2023-07-20T10:26:14;15.5;;;10.9;;
79592;SDS011;69074;45.164;9.704;2023-07-20T10:28:39;15.5;;;10.9;;
79592;SDS011;69074;45.164;9.704;2023-07-20T10:31:04;15.5;;;10.9;;
79592;SDS011;69074;45.164;9.704;2023-07-20T10:33:29;15.5;;;10.9;;
79592;SDS011;69074;45.164;9.704;2023-07-20T10:35:55;15.5;;;10.9;;
79592;SDS011;69074;45.164;9.704;2023-07-20T10:38:19;9.9;;;6.8;;
79592;SDS011;69074;45.164;9.704;2023-07-20T10:40:53;9.9;;;6.8;;
79592;SDS011;69074;45.164;9.704;2023-07-20T10:43:09;9.9;;;6.8;;
79592;SDS011;69074;45.164;9.704;2023-07-20T10:45:35;9.9;;;6.8;;
79592;SDS011;69074;45.164;9.704;2023-07-20T10:48:02;9.9;;;6.8;;
79592;SDS011;69074;45.164;9.704;2023-07-20T10:50:24;9.9;;;6.8;;
79592;SDS011;69074;45.164;9.704;2023-07-20T10:53:03;8.4;;;6.5;;
79592;SDS011;69074;45.164;9.704;2023-07-20T10:55:14;8.4;;;6.5;;
79592;SDS011;69074;45.164;9.704;2023-07-20T10:57:39;8.4;;;6.5;;
79592;SDS011;69074;45.164;9.704;2023-07-20T11:00:08;8.4;;;6.5;;
79592;SDS011;69074;45.164;9.704;2023-07-20T11:02:29;8.4;;;6.5;;
79592;SDS011;69074;45.164;9.704;2023-07-20T11:04:54;8.4;;;6.5;;
79592;SDS011;69074;45.164;9.704;2023-07-20T11:07:36;8.4;;;6.5;;
79592;SDS011;69074;45.164;9.704;2023-07-20T11:09:44;8.3;;;6.1;;
79592;SDS011;69074;45.164;9.704;2023-07-20T11:12:09;8.3;;;6.1;;
79592;SDS011;69074;45.164;9.704;2023-07-20T11:14:34;8.3;;;6.1;;
79592;SDS011;69074;45.164;9.704;2023-07-20T11:17:10;8.3;;;6.1;;
79592;SDS011;69074;45.164;9.704;2023-07-20T11:19:24;8.3;;;6.1;;
79592;SDS011;69074;45.164;9.704;2023-07-20T11:21:50;8.3;;;6.1;;
79592;SDS011;69074;45.164;9.704;2023-07-20T11:24:14;13.2;;;10.1;;
79592;SDS011;69074;45.164;9.704;2023-07-20T11:26:40;13.2;;;10.1;;
79592;SDS011;69074;45.164;9.704;2023-07-20T11:29:04;13.2;;;10.1;;
79592;SDS011;69074;45.164;9.704;2023-07-20T11:31:29;13.2;;;10.1;;
79592;SDS011;69074;45.164;9.704;2023-07-20T11:33:54;13.2;;;10.1;;
79592;SDS011;69074;45.164;9.704;2023-07-20T11:36:19;13.2;;;10.1;;
79592;SDS011;69074;45.164;9.704;2023-07-20T11:38:45;8.7;;;6.5;;
79592;SDS011;69074;45.164;9.704;2023-07-20T11:41:09;8.7;;;6.5;;
79592;SDS011;69074;45.164;9.704;2023-07-20T11:43:34;8.7;;;6.5;;
79592;SDS011;69074;45.164;9.704;2023-07-20T11:45:59;8.7;;;6.5;;
79592;SDS011;69074;45.164;9.704;2023-07-20T11:48:24;8.7;;;6.5;;
79592;SDS011;69074;45.164;9.704;2023-07-20T11:50:49;8.7;;;6.5;;
79592;SDS011;69074;45.164;9.704;2023-07-20T11:53:14;11.3;;;6.4;;
79592;SDS011;69074;45.164;9.704;2023-07-20T11:55:39;11.3;;;6.4;;
79592;SDS011;69074;45.164;9.704;2023-07-20T11:58:04;11.3;;;6.4;;
79592;SDS011;69074;45.164;9.704;2023-07-20T12:00:29;11.3;;;6.4;;
79592;SDS011;69074;45.164;9.704;2023-07-20T12:02:54;11.3;;;6.4;;
79592;SDS011;69074;45.164;9.704;2023-07-20T12:05:19;11.3;;;6.4;;
79592;SDS011;69074;45.164;9.704;2023-07-20T12:07:44;8.5;;;6.1;;
79592;SDS011;69074;45.164;9.704;2023-07-20T12:10:11;8.5;;;6.1;;
79592;SDS011;69074;45.164;9.704;2023-07-20T12:12:34;8.5;;;6.1;;
79592;SDS011;69074;45.164;9.704;2023-07-20T12:15:15;8.5;;;6.1;;
79592;SDS011;69074;45.164;9.704;2023-07-20T12:17:24;8.5;;;6.1;;
79592;SDS011;69074;45.164;9.704;2023-07-20T12:19:49;8.5;;;6.1;;
79592;SDS011;69074;45.164;9.704;2023-07-20T12:22:14;8.5;;;6.1;;
79592;SDS011;69074;45.164;9.704;2023-07-20T12:24:39;10.0;;;6.0;;
79592;SDS011;69074;45.164;9.704;2023-07-20T12:27:04;10.0;;;6.0;;
79592;SDS011;69074;45.164;9.704;2023-07-20T12:29:29;10.0;;;6.0;;
79592;SDS011;69074;45.164;9.704;2023-07-20T12:31:54;10.0;;;6.0;;
79592;SDS011;69074;45.164;9.704;2023-07-20T12:34:19;10.0;;;6.0;;
79592;SDS011;69074;45.164;9.704;2023-07-20T12:36:44;10.0;;;6.0;;
79592;SDS011;69074;45.164;9.704;2023-07-20T12:39:09;9.2;;;6.2;;
79592;SDS011;69074;45.164;9.704;2023-07-20T12:41:34;9.2;;;6.2;;
79592;SDS011;69074;45.164;9.704;2023-07-20T12:43:59;9.2;;;6.2;;
79592;SDS011;69074;45.164;9.704;2023-07-20T12:46:24;9.2;;;6.2;;
79592;SDS011;69074;45.164;9.704;2023-07-20T12:48:49;9.2;;;6.2;;
79592;SDS011;69074;45.164;9.704;2023-07-20T12:51:14;9.2;;;6.2;;
79592;SDS011;69074;45.164;9.704;2023-07-20T12:53:39;9.7;;;6.6;;
79592;SDS011;69074;45.164;9.704;2023-07-20T12:56:04;9.7;;;6.6;;
79592;SDS011;69074;45.164;9.704;2023-07-20T12:58:29;9.7;;;6.6;;
79592;SDS011;69074;45.164;9.704;2023-07-20T13:00:54;9.7;;;6.6;;
79592;SDS011;69074;45.164;9.704;2023-07-20T13:03:19;9.7;;;6.6;;
79592;SDS011;69074;45.164;9.704;2023-07-20T13:05:44;9.7;;;6.6;;
79592;SDS011;69074;45.164;9.704;2023-07-20T13:08:09;8.6;;;6.7;;
79592;SDS011;69074;45.164;9.704;2023-07-20T13:10:34;8.6;;;6.7;;
79592;SDS011;69074;45.164;9.704;2023-07-20T13:12:59;8.6;;;6.7;;
79592;SDS011;69074;45.164;9.704;2023-07-20T13:15:24;8.6;;;6.7;;
79592;SDS011;69074;45.164;9.704;2023-07-20T13:17:49;8.6;;;6.7;;
79592;SDS011;69074;45.164;9.704;2023-07-20T13:20:14;8.6;;;6.7;;
79592;SDS011;69074;45.164;9.704;2023-07-20T13:22:39;9.9;;;6.6;;
79592;SDS011;69074;45.164;9.704;2023-07-20T13:25:04;9.9;;;6.6;;
79592;SDS011;69074;45.164;9.704;2023-07-20T13:27:29;9.9;;;6.6;;
79592;SDS011;69074;45.164;9.704;2023-07-20T13:29:54;9.9;;;6.6;;
79592;SDS011;69074;45.164;9.704;2023-07-20T13:32:19;9.9;;;6.6;;
79592;SDS011;69074;45.164;9.704;2023-07-20T13:34:45;9.9;;;6.6;;
79592;SDS011;69074;45.164;9.704;2023-07-20T13:37:09;9.9;;;6.6;;
79592;SDS011;69074;45.164;9.704;2023-07-20T13:39:34;12.2;;;7.4;;
79592;SDS011;69074;45.164;9.704;2023-07-20T13:41:59;12.2;;;7.4;;
79592;SDS011;69074;45.164;9.704;2023-07-20T13:44:24;12.2;;;7.4;;
79592;SDS011;69074;45.164;9.704;2023-07-20T13:46:49;12.2;;;7.4;;
79592;SDS011;69074;45.164;9.704;2023-07-20T13:49:14;12.2;;;7.4;;
79592;SDS011;69074;45.164;9.704;2023-07-20T13:51:39;12.2;;;7.4;;
79592;SDS011;69074;45.164;9.704;2023-07-20T13:54:04;12.8;;;10.5;;
79592;SDS011;69074;45.164;9.704;2023-07-20T13:56:29;12.8;;;10.5;;
79592;SDS011;69074;45.164;9.704;2023-07-20T13:58:54;12.8;;;10.5;;
79592;SDS011;69074;45.164;9.704;2023-07-20T14:01:19;12.8;;;10.5;;
79592;SDS011;69074;45.164;9.704;2023-07-20T14:03:44;12.8;;;10.5;;
79592;SDS011;69074;45.164;9.704;2023-07-20T14:06:09;12.8;;;10.5;;
79592;SDS011;69074;45.164;9.704;2023-07-20T14:08:34;11.4;;;9.2;;
79592;SDS011;69074;45.164;9.704;2023-07-20T14:10:59;11.4;;;9.2;;
79592;SDS011;69074;45.164;9.704;2023-07-20T14:13:24;11.4;;;9.2;;
79592;SDS011;69074;45.164;9.704;2023-07-20T14:15:49;11.4;;;9.2;;
79592;SDS011;69074;45.164;9.704;2023-07-20T14:18:14;11.4;;;9.2;;
79592;SDS011;69074;45.164;9.704;2023-07-20T14:20:39;11.4;;;9.2;;
79592;SDS011;69074;45.164;9.704;2023-07-20T14:23:04;9.0;;;7.8;;
79592;SDS011;69074;45.164;9.704;2023-07-20T14:25:29;9.0;;;7.8;;
79592;SDS011;69074;45.164;9.704;2023-07-20T14:27:54;9.0;;;7.8;;
79592;SDS011;69074;45.164;9.704;2023-07-20T14:30:19;9.0;;;7.8;;
79592;SDS011;69074;45.164;9.704;2023-07-20T14:32:44;9.0;;;7.8;;
79592;SDS011;69074;45.164;9.704;2023-07-20T14:35:09;9.0;;;7.8;;
79592;SDS011;69074;45.164;9.704;2023-07-20T14:37:34;9.0;;;7.8;;
79592;SDS011;69074;45.164;9.704;2023-07-20T14:39:59;9.0;;;8.0;;
79592;SDS011;69074;45.164;9.704;2023-07-20T14:42:24;9.0;;;8.0;;
79592;SDS011;69074;45.164;9.704;2023-07-20T14:44:49;9.0;;;8.0;;
79592;SDS011;69074;45.164;9.704;2023-07-20T14:47:14;9.0;;;8.0;;
79592;SDS011;69074;45.164;9.704;2023-07-20T14:49:39;9.0;;;8.0;;
79592;SDS011;69074;45.164;9.704;2023-07-20T14:52:04;9.0;;;8.0;;
79592;SDS011;69074;45.164;9.704;2023-07-20T14:54:29;11.5;;;8.4;;